Time;durP1;ratioP1;P1;durP2;ratioP2;P2;SDS_P1;SDS_P2;PMS_P1;PMS_P2;Temp;Humidity;BMP_temperature;BMP_pressure;BME280_temperature;BME280_humidity;BME280_pressure;Samples;Min_cycle;Max_cycle;Signal;HPM_P1;HPM_P2
2021/08/11 00:00:18;;;;;;;;;;;;;;;;;;2109509;28;1325;-84
2021/08/11 00:01:19;;;;;;;;;;;;;;;;;;2101003;28;1310;-84
2021/08/11 00:02:20;;;;;;;;;;;;;;;;;;2100360;28;1398;-84
2021/08/11 00:03:21;;;;;;;;;;;;;;;;;;2109204;28;1257;-84
2021/08/11 00:04:24;;;;;;;;;;;;;;;;;;2108721;28;1911;-84
2021/08/11 00:05:25;;;;;;;;;;;;;;;;;;2100870;28;1495;-84
2021/08/11 00:06:27;;;;;;;;;;;;;;;;;;2123687;27;2038;-84
2021/08/11 00:07:28;;;;;;;;;;;;;;;;;;2116318;28;1598;-84
2021/08/11 00:08:29;;;;;;;;;;;;;;;;;;2108778;28;1247;-84
2021/08/11 00:09:30;;;;;;;;;;;;;;;;;;2109408;28;1415;-84
2021/08/11 00:10:32;;;;;;;;;;;;;;;;;;2109146;28;1231;-84
2021/08/11 00:11:33;;;;;;;;;;;;;;;;;;2117254;28;1253;-84
2021/08/11 00:12:35;;;;;;;;;;;;;;;;;;2108638;28;1911;-84
2021/08/11 00:13:36;;;;;;;;;;;;;;;;;;2109312;28;1210;-84
2021/08/11 00:14:38;;;;;;;;;;;;;;;;;;2109025;28;1198;-84
2021/08/11 00:15:40;;;;;;;;;;;;;;;;;;2108295;28;2044;-84
2021/08/11 00:16:40;;;;;;;;;;;;;;;;;;2109399;28;1234;-84
2021/08/11 00:17:42;;;;;;;;;;;;;;;;;;2112376;28;1862;-83
2021/08/11 00:18:43;;;;;;;;;;;;;;;;;;2116856;28;1245;-84
2021/08/11 00:19:46;;;;;;;;;;;;;;;;;;2126357;27;1256;-84
2021/08/11 00:20:50;;;;;;;;;;;;;;;;;;2115427;28;1263;-84
2021/08/11 00:21:52;;;;;;;;;;;;;;;;;;2100897;28;1310;-84
2021/08/11 00:22:52;;;;;;;;;;;;;;;;;;2108531;28;1297;-84
2021/08/11 00:23:54;;;;;;;;;;;;;;;;;;2110516;28;1977;-84
2021/08/11 00:24:56;;;;;;;;;;;;;;;;;;2117228;28;1678;-84
2021/08/11 00:25:57;;;;;;;;;;;;;;;;;;2114941;28;1360;-84
2021/08/11 00:26:59;;;;;;;;;;;;;;;;;;2109105;28;1748;-84
2021/08/11 00:28:01;;;;;;;;;;;;;;;;;;2100814;28;1252;-83
2021/08/11 00:29:03;;;;;;;;;;;;;;;;;;2100734;28;1195;-84
2021/08/11 00:30:04;;;;;;;;;;;;;;;;;;2100876;28;1563;-84
2021/08/11 00:31:06;;;;;;;;;;;;;;;;;;2100225;28;1287;-84
2021/08/11 00:32:08;;;;;;;;;;;;;;;;;;2100869;28;1479;-85
2021/08/11 00:33:09;;;;;;;;;;;;;;;;;;2108998;28;1281;-84
2021/08/11 00:34:12;;;;;;;;;;;;;;;;;;2108858;28;1331;-85
2021/08/11 00:35:15;;;;;;;;;;;;;;;;;;2109323;28;1448;-84
2021/08/11 00:36:16;;;;;;;;;;;;;;;;;;2114585;28;1353;-84
2021/08/11 00:37:18;;;;;;;;;;;;;;;;;;2117472;28;1419;-84
2021/08/11 00:38:23;;;;;;;;;;;;;;;;;;2109128;28;1326;-84
2021/08/11 00:39:27;;;;;;;;;;;;;;;;;;2117005;28;1106;-84
2021/08/11 00:40:29;;;;;;;;;;;;;;;;;;2100026;28;1309;-83
2021/08/11 00:41:31;;;;;;;;;;;;;;;;;;2109424;28;1361;-84
2021/08/11 00:42:33;;;;;;;;;;;;;;;;;;2108782;28;1386;-83
2021/08/11 00:43:36;;;;;;;;;;;;;;;;;;2108983;28;1449;-83
2021/08/11 00:44:37;;;;;;;;;;;;;;;;;;2100440;28;1968;-83
2021/08/11 00:45:40;;;;;;;;;;;;;;;;;;2100705;28;1412;-83
2021/08/11 00:46:40;;;;;;;;;;;;;;;;;;2100294;28;1259;-83
2021/08/11 00:47:42;;;;;;;;;;;;;;;;;;2103806;28;1847;-83
2021/08/11 00:48:44;;;;;;;;;;;;;;;;;;2116758;28;1101;-83
2021/08/11 00:49:50;;;;;;;;;;;;;;;;;;2108992;28;1317;-83
2021/08/11 00:50:52;;;;;;;;;;;;;;;;;;2108451;28;2057;-83
2021/08/11 00:51:54;;;;;;;;;;;;;;;;;;2108766;28;1779;-83
2021/08/11 00:52:57;;;;;;;;;;;;;;;;;;2106078;28;2113;-84
2021/08/11 00:53:59;;;;;;;;;;;;;;;;;;2100580;28;1243;-83
2021/08/11 00:55:01;;;;;;;;;;;;;;;;;;2108871;28;1377;-84
2021/08/11 00:56:05;;;;;;;;;;;;;;;;;;2105075;28;1205;-84
2021/08/11 00:57:09;;;;;;;;;;;;;;;;;;2100859;28;1620;-83
2021/08/11 00:58:12;;;;;;;;;;;;;;;;;;2108905;28;1052;-84
2021/08/11 00:59:19;;;;;;;;;;;;;;;;;;2109052;28;1452;-83
2021/08/11 01:00:20;;;;;;;;;;;;;;;;;;2108572;28;1417;-85
2021/08/11 01:01:23;;;;;;;;;;;;;;;;;;2108217;28;1876;-83
2021/08/11 01:02:24;;;;;;;;;;;;;;;;;;2108625;28;1227;-84
2021/08/11 01:03:29;;;;;;;;;;;;;;;;;;2108616;28;1320;-84
2021/08/11 01:04:32;;;;;;;;;;;;;;;;;;2108783;28;1925;-83
2021/08/11 01:05:34;;;;;;;;;;;;;;;;;;2100665;28;1238;-83
2021/08/11 01:06:38;;;;;;;;;;;;;;;;;;2100527;28;1532;-84
2021/08/11 01:07:40;;;;;;;;;;;;;;;;;;2100986;28;1294;-84
2021/08/11 01:08:42;;;;;;;;;;;;;;;;;;2108772;28;1409;-84
2021/08/11 01:09:43;;;;;;;;;;;;;;;;;;2108612;28;1375;-84
2021/08/11 01:10:47;;;;;;;;;;;;;;;;;;2108357;28;1580;-84
2021/08/11 01:11:52;;;;;;;;;;;;;;;;;;2100424;28;1323;-84
2021/08/11 01:12:55;;;;;;;;;;;;;;;;;;2108940;28;2025;-84
2021/08/11 01:13:57;;;;;;;;;;;;;;;;;;2108520;28;1263;-84
2021/08/11 01:14:59;;;;;;;;;;;;;;;;;;2108755;28;1302;-84
2021/08/11 01:16:00;;;;;;;;;;;;;;;;;;2109225;28;1428;-84
2021/08/11 01:17:04;;;;;;;;;;;;;;;;;;2108957;28;1267;-84
2021/08/11 01:18:05;;;;;;;;;;;;;;;;;;2108711;28;1271;-84
2021/08/11 01:19:07;;;;;;;;;;;;;;;;;;2116606;28;1555;-84
2021/08/11 01:20:09;;;;;;;;;;;;;;;;;;2108325;28;1372;-85
2021/08/11 01:21:13;;;;;;;;;;;;;;;;;;2108576;28;1239;-84
2021/08/11 01:22:24;;;;;;;;;;;;;;;;;;2116982;28;1044;-84
2021/08/11 01:23:30;;;;;;;;;;;;;;;;;;2117417;28;1367;-84
2021/08/11 01:24:36;;;;;;;;;;;;;;;;;;2108294;28;1999;-84
2021/08/11 01:25:40;;;;;;;;;;;;;;;;;;2109613;28;831;-83
2021/08/11 01:26:54;;;;;;;;;;;;;;;;;;2108502;28;1254;-83
2021/08/11 01:28:11;;;;;;;;;;;;;;;;;;2108560;28;2089;-84
2021/08/11 01:29:12;;;;;;;;;;;;;;;;;;2100438;28;1717;-83
2021/08/11 01:30:17;;;;;;;;;;;;;;;;;;2092037;28;1306;-84
2021/08/11 01:31:19;;;;;;;;;;;;;;;;;;2098112;28;1340;-83
2021/08/11 01:32:27;;;;;;;;;;;;;;;;;;2100122;28;1313;-84
2021/08/11 01:33:37;;;;;;;;;;;;;;;;;;2084401;28;1209;-84
2021/08/11 01:34:43;;;;;;;;;;;;;;;;;;2093362;28;1370;-84
2021/08/11 01:35:46;;;;;;;;;;;;;;;;;;2100812;28;2039;-84
2021/08/11 01:36:52;;;;;;;;;;;;;;;;;;2107743;28;1538;-84
2021/08/11 01:37:57;;;;;;;;;;;;;;;;;;2102196;28;2072;-82
2021/08/11 01:39:02;;;;;;;;;;;;;;;;;;2100057;28;1783;-83
2021/08/11 01:40:05;;;;;;;;;;;;;;;;;;2100926;28;1308;-83
2021/08/11 01:41:13;;;;;;;;;;;;;;;;;;2105135;28;1506;-84
2021/08/11 01:42:19;;;;;;;;;;;;;;;;;;2100531;28;1460;-84
2021/08/11 01:43:21;;;;;;;;;;;;;;;;;;2109401;28;1440;-84
2021/08/11 01:44:25;;;;;;;;;;;;;;;;;;2108188;28;1976;-85
2021/08/11 01:45:27;;;;;;;;;;;;;;;;;;2100677;28;1465;-84
2021/08/11 01:46:34;;;;;;;;;;;;;;;;;;2100897;28;1266;-84
2021/08/11 01:47:38;;;;;;;;;;;;;;;;;;2108307;28;1263;-84
2021/08/11 01:48:43;;;;;;;;;;;;;;;;;;2100134;28;1326;-85
2021/08/11 01:49:45;;;;;;;;;;;;;;;;;;2099783;28;1322;-84
2021/08/11 01:50:47;;;;;;;;;;;;;;;;;;2091878;28;1262;-84
2021/08/11 01:51:53;;;;;;;;;;;;;;;;;;2093010;28;1287;-84
2021/08/11 01:52:58;;;;;;;;;;;;;;;;;;2097356;28;1856;-84
2021/08/11 01:54:01;;;;;;;;;;;;;;;;;;2101185;28;1278;-83
2021/08/11 01:55:04;;;;;;;;;;;;;;;;;;2100086;28;1222;-84
2021/08/11 01:56:08;;;;;;;;;;;;;;;;;;2095165;28;1289;-85
2021/08/11 01:57:17;;;;;;;;;;;;;;;;;;2101059;28;1160;-84
2021/08/11 01:58:20;;;;;;;;;;;;;;;;;;2100211;28;1398;-84
2021/08/11 01:59:22;;;;;;;;;;;;;;;;;;2099928;28;1478;-84
2021/08/11 02:00:24;;;;;;;;;;;;;;;;;;2108172;28;1457;-83
2021/08/11 02:01:26;;;;;;;;;;;;;;;;;;2099658;28;1517;-83
2021/08/11 02:02:29;;;;;;;;;;;;;;;;;;2091744;28;1297;-83
2021/08/11 02:03:32;;;;;;;;;;;;;;;;;;2100269;28;1391;-83
2021/08/11 02:04:36;;;;;;;;;;;;;;;;;;2099739;28;1921;-84
2021/08/11 02:05:40;;;;;;;;;;;;;;;;;;2099824;28;1866;-83
2021/08/11 02:06:45;;;;;;;;;;;;;;;;;;2099942;28;1442;-83
2021/08/11 02:07:49;;;;;;;;;;;;;;;;;;2100016;28;1450;-83
2021/08/11 02:08:52;;;;;;;;;;;;;;;;;;2099910;28;1602;-83
2021/08/11 02:09:53;;;;;;;;;;;;;;;;;;2092077;28;1514;-83
2021/08/11 02:10:56;;;;;;;;;;;;;;;;;;2094476;28;1914;-83
2021/08/11 02:11:59;;;;;;;;;;;;;;;;;;2100209;28;1400;-83
2021/08/11 02:13:01;;;;;;;;;;;;;;;;;;2106782;28;1409;-83
2021/08/11 02:14:06;;;;;;;;;;;;;;;;;;2100600;28;1242;-83
2021/08/11 02:15:08;;;;;;;;;;;;;;;;;;2108526;28;1215;-83
2021/08/11 02:16:10;;;;;;;;;;;;;;;;;;2107909;28;1871;-84
2021/08/11 02:17:12;;;;;;;;;;;;;;;;;;2108244;28;1454;-83
2021/08/11 02:18:13;;;;;;;;;;;;;;;;;;2099400;28;1419;-83
2021/08/11 02:19:15;;;;;;;;;;;;;;;;;;2099739;28;1190;-82
2021/08/11 02:20:18;;;;;;;;;;;;;;;;;;2099792;28;1241;-83
2021/08/11 02:21:20;;;;;;;;;;;;;;;;;;2099499;28;1274;-83
2021/08/11 02:22:22;;;;;;;;;;;;;;;;;;2091183;28;1709;-83
2021/08/11 02:23:24;;;;;;;;;;;;;;;;;;2099830;28;1435;-83
2021/08/11 02:24:26;;;;;;;;;;;;;;;;;;2105582;28;1444;-83
2021/08/11 02:25:27;;;;;;;;;;;;;;;;;;2091255;28;1906;-83
2021/08/11 02:26:35;;;;;;;;;;;;;;;;;;2099329;28;1932;-83
2021/08/11 02:27:39;;;;;;;;;;;;;;;;;;2099996;28;1252;-84
2021/08/11 02:28:46;;;;;;;;;;;;;;;;;;2107937;28;1348;-83
2021/08/11 02:29:49;;;;;;;;;;;;;;;;;;2117571;27;1510;-83
2021/08/11 02:31:04;;;;;;;;;;;;;;;;;;2116024;28;1426;-83
2021/08/11 02:32:10;;;;;;;;;;;;;;;;;;2118668;27;1312;-83
2021/08/11 02:33:14;;;;;;;;;;;;;;;;;;2116332;28;1311;-83
2021/08/11 02:34:19;;;;;;;;;;;;;;;;;;2091237;28;1286;-84
2021/08/11 02:35:25;;;;;;;;;;;;;;;;;;2100446;28;1204;-83
2021/08/11 02:36:28;;;;;;;;;;;;;;;;;;2108458;28;1017;-84
2021/08/11 02:37:32;;;;;;;;;;;;;;;;;;2106336;28;2164;-83
2021/08/11 02:38:34;;;;;;;;;;;;;;;;;;2099865;28;1355;-84
2021/08/11 02:39:43;;;;;;;;;;;;;;;;;;2099617;28;1728;-83
2021/08/11 02:40:52;;;;;;;;;;;;;;;;;;2101262;28;2008;-84
2021/08/11 02:41:57;;;;;;;;;;;;;;;;;;2099887;28;1287;-83
2021/08/11 02:43:06;;;;;;;;;;;;;;;;;;2100219;28;886;-83
2021/08/11 02:44:08;;;;;;;;;;;;;;;;;;2108172;28;1437;-85
2021/08/11 02:45:13;;;;;;;;;;;;;;;;;;2116540;28;1979;-83
2021/08/11 02:46:15;;;;;;;;;;;;;;;;;;2107291;28;1551;-84
2021/08/11 02:47:18;;;;;;;;;;;;;;;;;;2099979;28;2119;-84
2021/08/11 02:48:20;;;;;;;;;;;;;;;;;;2099259;28;1274;-84
2021/08/11 02:49:27;;;;;;;;;;;;;;;;;;2099628;28;1460;-85
2021/08/11 02:50:30;;;;;;;;;;;;;;;;;;2108901;28;1305;-85
2021/08/11 02:51:32;;;;;;;;;;;;;;;;;;2116091;28;1223;-84
2021/08/11 02:52:36;;;;;;;;;;;;;;;;;;2116862;28;2047;-85
2021/08/11 02:53:41;;;;;;;;;;;;;;;;;;2116323;28;1344;-83
2021/08/11 02:54:42;;;;;;;;;;;;;;;;;;2116833;28;1380;-83
2021/08/11 02:55:44;;;;;;;;;;;;;;;;;;2115919;28;1915;-84
2021/08/11 02:56:46;;;;;;;;;;;;;;;;;;2116333;28;1362;-83
2021/08/11 02:57:50;;;;;;;;;;;;;;;;;;2107973;28;1503;-83
2021/08/11 02:58:51;;;;;;;;;;;;;;;;;;2107950;28;1261;-83
2021/08/11 02:59:54;;;;;;;;;;;;;;;;;;2107871;28;1427;-84
2021/08/11 03:00:54;;;;;;;;;;;;;;;;;;2099311;28;1269;-84
2021/08/11 03:01:57;;;;;;;;;;;;;;;;;;2099392;28;1219;-84
2021/08/11 03:02:58;;;;;;;;;;;;;;;;;;2099078;28;1213;-83
2021/08/11 03:04:00;;;;;;;;;;;;;;;;;;2099698;28;1599;-83
2021/08/11 03:05:01;;;;;;;;;;;;;;;;;;2098545;28;1977;-84
2021/08/11 03:06:05;;;;;;;;;;;;;;;;;;2108009;28;1283;-83
2021/08/11 03:07:06;;;;;;;;;;;;;;;;;;2107688;28;1261;-83
2021/08/11 03:08:09;;;;;;;;;;;;;;;;;;2106796;28;2081;-84
2021/08/11 03:09:10;;;;;;;;;;;;;;;;;;2125093;27;1459;-83
2021/08/11 03:10:13;;;;;;;;;;;;;;;;;;2133261;27;873;-84
2021/08/11 03:11:14;;;;;;;;;;;;;;;;;;2116150;28;1431;-84
2021/08/11 03:12:17;;;;;;;;;;;;;;;;;;2107597;28;1840;-84
2021/08/11 03:13:20;;;;;;;;;;;;;;;;;;2099422;28;1383;-83
2021/08/11 03:14:22;;;;;;;;;;;;;;;;;;2108055;28;1603;-84
2021/08/11 03:15:25;;;;;;;;;;;;;;;;;;2116335;28;1299;-84
2021/08/11 03:16:27;;;;;;;;;;;;;;;;;;2115642;28;1398;-84
2021/08/11 03:17:28;;;;;;;;;;;;;;;;;;2115582;28;1299;-84
2021/08/11 03:18:33;;;;;;;;;;;;;;;;;;2116385;28;1277;-84
2021/08/11 03:19:35;;;;;;;;;;;;;;;;;;2115793;28;1438;-84
2021/08/11 03:20:38;;;;;;;;;;;;;;;;;;2107652;28;1304;-84
2021/08/11 03:21:42;;;;;;;;;;;;;;;;;;2099900;28;1231;-83
2021/08/11 03:22:49;;;;;;;;;;;;;;;;;;2108175;28;1262;-84
2021/08/11 03:23:49;;;;;;;;;;;;;;;;;;2115027;28;1693;-84
2021/08/11 03:24:54;;;;;;;;;;;;;;;;;;2099060;28;1203;-83
2021/08/11 03:25:55;;;;;;;;;;;;;;;;;;2102305;28;1902;-84
2021/08/11 03:26:57;;;;;;;;;;;;;;;;;;2107854;28;1365;-84
2021/08/11 03:28:00;;;;;;;;;;;;;;;;;;2105839;28;1828;-84
2021/08/11 03:29:03;;;;;;;;;;;;;;;;;;2108070;28;1544;-83
2021/08/11 03:30:12;;;;;;;;;;;;;;;;;;2108972;28;1520;-84
2021/08/11 03:31:13;;;;;;;;;;;;;;;;;;2108156;28;1334;-84
2021/08/11 03:32:18;;;;;;;;;;;;;;;;;;2107516;28;2005;-85
2021/08/11 03:33:20;;;;;;;;;;;;;;;;;;2091037;28;1235;-83
2021/08/11 03:34:22;;;;;;;;;;;;;;;;;;2099536;28;1310;-84
2021/08/11 03:35:27;;;;;;;;;;;;;;;;;;2099324;28;1207;-84
2021/08/11 03:36:30;;;;;;;;;;;;;;;;;;2091120;28;1330;-84
2021/08/11 03:37:34;;;;;;;;;;;;;;;;;;2091667;28;1164;-84
2021/08/11 03:38:39;;;;;;;;;;;;;;;;;;2091606;28;1255;-84
2021/08/11 03:39:42;;;;;;;;;;;;;;;;;;2083234;28;1614;-84
2021/08/11 03:40:45;;;;;;;;;;;;;;;;;;2083307;28;1200;-84
2021/08/11 03:41:48;;;;;;;;;;;;;;;;;;2099683;28;1266;-84
2021/08/11 03:42:53;;;;;;;;;;;;;;;;;;2099401;28;1342;-84
2021/08/11 03:43:56;;;;;;;;;;;;;;;;;;2091520;28;1244;-84
2021/08/11 03:45:01;;;;;;;;;;;;;;;;;;2091789;28;1164;-84
2021/08/11 03:46:07;;;;;;;;;;;;;;;;;;2107629;28;1902;-84
2021/08/11 03:47:08;;;;;;;;;;;;;;;;;;2099117;28;1246;-84
2021/08/11 03:48:09;;;;;;;;;;;;;;;;;;2090875;28;1934;-85
2021/08/11 03:49:12;;;;;;;;;;;;;;;;;;2091359;28;1322;-84
2021/08/11 03:50:16;;;;;;;;;;;;;;;;;;2091090;28;1245;-84
2021/08/11 03:51:20;;;;;;;;;;;;;;;;;;2098030;28;1410;-84
2021/08/11 03:52:22;;;;;;;;;;;;;;;;;;2099151;28;1385;-84
2021/08/11 03:53:25;;;;;;;;;;;;;;;;;;2099504;28;1289;-83
2021/08/11 03:54:27;;;;;;;;;;;;;;;;;;2099347;28;1303;-83
2021/08/11 03:55:31;;;;;;;;;;;;;;;;;;2099897;28;1526;-84
2021/08/11 03:56:33;;;;;;;;;;;;;;;;;;2099972;28;1269;-84
2021/08/11 03:57:34;;;;;;;;;;;;;;;;;;2099365;28;1400;-84
2021/08/11 03:58:37;;;;;;;;;;;;;;;;;;2099415;28;1409;-83
2021/08/11 03:59:40;;;;;;;;;;;;;;;;;;2107414;28;1327;-84
2021/08/11 04:00:44;;;;;;;;;;;;;;;;;;2099057;28;1687;-84
2021/08/11 04:01:45;;;;;;;;;;;;;;;;;;2098975;28;1344;-84
2021/08/11 04:02:46;;;;;;;;;;;;;;;;;;2111545;28;803;-84
2021/08/11 04:03:47;;;;;;;;;;;;;;;;;;2116661;28;954;-84
2021/08/11 04:04:49;;;;;;;;;;;;;;;;;;2116368;28;784;-84
2021/08/11 04:05:50;;;;;;;;;;;;;;;;;;2114327;28;1906;-84
2021/08/11 04:06:53;;;;;;;;;;;;;;;;;;2108171;28;871;-83
2021/08/11 04:07:55;;;;;;;;;;;;;;;;;;2113681;28;2106;-84
2021/08/11 04:08:58;;;;;;;;;;;;;;;;;;2116040;28;1443;-84
2021/08/11 04:09:58;;;;;;;;;;;;;;;;;;2116792;28;990;-84
2021/08/11 04:11:00;;;;;;;;;;;;;;;;;;2116495;28;1479;-83
2021/08/11 04:12:02;;;;;;;;;;;;;;;;;;2116751;28;960;-84
2021/08/11 04:13:03;;;;;;;;;;;;;;;;;;2116125;28;1348;-84
2021/08/11 04:14:05;;;;;;;;;;;;;;;;;;2116782;28;846;-84
2021/08/11 04:15:06;;;;;;;;;;;;;;;;;;2116490;28;1372;-84
2021/08/11 04:16:08;;;;;;;;;;;;;;;;;;2116517;28;915;-84
2021/08/11 04:17:11;;;;;;;;;;;;;;;;;;2116797;28;796;-84
2021/08/11 04:18:13;;;;;;;;;;;;;;;;;;2116412;28;809;-84
2021/08/11 04:19:15;;;;;;;;;;;;;;;;;;2107760;28;1533;-84
2021/08/11 04:20:16;;;;;;;;;;;;;;;;;;2107408;28;954;-84
2021/08/11 04:21:18;;;;;;;;;;;;;;;;;;2116517;28;1236;-84
2021/08/11 04:22:19;;;;;;;;;;;;;;;;;;2116361;28;926;-84
2021/08/11 04:23:20;;;;;;;;;;;;;;;;;;2116799;28;833;-84
2021/08/11 04:24:23;;;;;;;;;;;;;;;;;;2117768;28;1240;-83
2021/08/11 04:25:24;;;;;;;;;;;;;;;;;;2125274;28;822;-83
2021/08/11 04:26:25;;;;;;;;;;;;;;;;;;2124862;28;970;-82
2021/08/11 04:27:27;;;;;;;;;;;;;;;;;;2124621;27;2084;-83
2021/08/11 04:28:28;;;;;;;;;;;;;;;;;;2124962;28;1064;-82
2021/08/11 04:29:30;;;;;;;;;;;;;;;;;;2125071;28;1061;-83
2021/08/11 04:30:30;;;;;;;;;;;;;;;;;;2125187;28;808;-83
2021/08/11 04:31:32;;;;;;;;;;;;;;;;;;2125017;28;843;-82
2021/08/11 04:32:33;;;;;;;;;;;;;;;;;;2126755;27;2104;-83
2021/08/11 04:33:35;;;;;;;;;;;;;;;;;;2133691;27;820;-83
2021/08/11 04:34:36;;;;;;;;;;;;;;;;;;2133090;27;1216;-84
2021/08/11 04:35:39;;;;;;;;;;;;;;;;;;2132885;27;1235;-83
2021/08/11 04:36:39;;;;;;;;;;;;;;;;;;2120873;27;1576;-83
2021/08/11 04:37:44;;;;;;;;;;;;;;;;;;2126385;27;863;-83
2021/08/11 04:38:46;;;;;;;;;;;;;;;;;;2125767;27;1548;-83
2021/08/11 04:39:49;;;;;;;;;;;;;;;;;;2126829;27;837;-83
2021/08/11 04:40:51;;;;;;;;;;;;;;;;;;2126253;27;1164;-83
2021/08/11 04:41:51;;;;;;;;;;;;;;;;;;2125239;27;1291;-83
2021/08/11 04:42:53;;;;;;;;;;;;;;;;;;2125202;27;1832;-83
2021/08/11 04:43:54;;;;;;;;;;;;;;;;;;2126490;27;801;-83
2021/08/11 04:44:56;;;;;;;;;;;;;;;;;;2126002;27;1341;-82
2021/08/11 04:45:57;;;;;;;;;;;;;;;;;;2117698;27;1938;-83
2021/08/11 04:46:58;;;;;;;;;;;;;;;;;;2111943;28;1457;-83
2021/08/11 04:47:59;;;;;;;;;;;;;;;;;;2114665;28;1667;-83
2021/08/11 04:49:01;;;;;;;;;;;;;;;;;;2117279;28;876;-83
2021/08/11 04:50:02;;;;;;;;;;;;;;;;;;2124768;27;965;-82
2021/08/11 04:51:05;;;;;;;;;;;;;;;;;;2117979;28;769;-83
2021/08/11 04:52:06;;;;;;;;;;;;;;;;;;2120894;27;1344;-82
2021/08/11 04:53:07;;;;;;;;;;;;;;;;;;2126098;27;1934;-82
2021/08/11 04:54:08;;;;;;;;;;;;;;;;;;2126558;27;794;-82
2021/08/11 04:55:13;;;;;;;;;;;;;;;;;;2125100;27;1590;-82
2021/08/11 04:56:14;;;;;;;;;;;;;;;;;;2117834;27;1198;-83
2021/08/11 04:57:16;;;;;;;;;;;;;;;;;;2125308;27;1304;-82
2021/08/11 04:58:16;;;;;;;;;;;;;;;;;;2122917;27;1518;-83
2021/08/11 04:59:18;;;;;;;;;;;;;;;;;;2118467;27;1267;-83
2021/08/11 05:00:19;;;;;;;;;;;;;;;;;;2117169;28;1447;-83
2021/08/11 05:01:21;;;;;;;;;;;;;;;;;;2116598;28;1942;-82
2021/08/11 05:02:21;;;;;;;;;;;;;;;;;;2126069;27;1716;-83
2021/08/11 05:03:23;;;;;;;;;;;;;;;;;;2125779;27;1651;-83
2021/08/11 05:04:27;;;;;;;;;;;;;;;;;;2124656;27;874;-83
2021/08/11 05:05:29;;;;;;;;;;;;;;;;;;2124565;27;1577;-83
2021/08/11 05:06:30;;;;;;;;;;;;;;;;;;2119415;27;1900;-83
2021/08/11 05:07:31;;;;;;;;;;;;;;;;;;2121955;27;1733;-82
2021/08/11 05:08:33;;;;;;;;;;;;;;;;;;2116881;28;1635;-82
2021/08/11 05:09:34;;;;;;;;;;;;;;;;;;2117470;28;1009;-84
2021/08/11 05:10:37;;;;;;;;;;;;;;;;;;2126054;27;839;-83
2021/08/11 05:11:38;;;;;;;;;;;;;;;;;;2116547;28;1559;-84
2021/08/11 05:12:40;;;;;;;;;;;;;;;;;;2109047;28;1872;-84
2021/08/11 05:13:41;;;;;;;;;;;;;;;;;;2116670;28;1749;-85
2021/08/11 05:14:43;;;;;;;;;;;;;;;;;;2116496;28;1345;-85
2021/08/11 05:15:43;;;;;;;;;;;;;;;;;;2116807;27;1945;-85
2021/08/11 05:16:45;;;;;;;;;;;;;;;;;;2125190;27;661;-85
2021/08/11 05:17:47;;;;;;;;;;;;;;;;;;2122138;27;1887;-85
2021/08/11 05:18:47;;;;;;;;;;;;;;;;;;2116918;28;1330;-85
2021/08/11 05:19:49;;;;;;;;;;;;;;;;;;2117689;28;807;-85
2021/08/11 05:20:51;;;;;;;;;;;;;;;;;;2117535;27;1906;-85
2021/08/11 05:21:53;;;;;;;;;;;;;;;;;;2117703;28;1083;-85
2021/08/11 05:22:55;;;;;;;;;;;;;;;;;;2117504;27;1911;-85
2021/08/11 05:23:56;;;;;;;;;;;;;;;;;;2117289;28;1629;-85
2021/08/11 05:24:58;;;;;;;;;;;;;;;;;;2117535;28;973;-85
2021/08/11 05:26:01;;;;;;;;;;;;;;;;;;2118036;27;1986;-85
2021/08/11 05:27:02;;;;;;;;;;;;;;;;;;2117470;28;965;-85
2021/08/11 05:28:04;;;;;;;;;;;;;;;;;;2116722;28;774;-86
2021/08/11 05:29:04;;;;;;;;;;;;;;;;;;2117390;28;766;-84
2021/08/11 05:30:07;;;;;;;;;;;;;;;;;;2117071;28;775;-85
2021/08/11 05:31:08;;;;;;;;;;;;;;;;;;2117869;27;1874;-85
2021/08/11 05:32:10;;;;;;;;;;;;;;;;;;2117422;28;698;-86
2021/08/11 05:33:12;;;;;;;;;;;;;;;;;;2117861;27;1887;-85
2021/08/11 05:34:13;;;;;;;;;;;;;;;;;;2117449;28;834;-85
2021/08/11 05:35:14;;;;;;;;;;;;;;;;;;2117025;28;1299;-85
2021/08/11 05:36:16;;;;;;;;;;;;;;;;;;2117593;28;1827;-84
2021/08/11 05:37:17;;;;;;;;;;;;;;;;;;2116902;27;1943;-84
2021/08/11 05:38:18;;;;;;;;;;;;;;;;;;2117426;27;900;-84
2021/08/11 05:39:19;;;;;;;;;;;;;;;;;;2117646;28;783;-85
2021/08/11 05:40:21;;;;;;;;;;;;;;;;;;2117291;28;922;-85
2021/08/11 05:41:23;;;;;;;;;;;;;;;;;;2117816;27;1925;-85
2021/08/11 05:42:24;;;;;;;;;;;;;;;;;;2117209;28;845;-85
2021/08/11 05:43:25;;;;;;;;;;;;;;;;;;2117545;28;739;-85
2021/08/11 05:44:27;;;;;;;;;;;;;;;;;;2116896;28;691;-86
2021/08/11 05:45:28;;;;;;;;;;;;;;;;;;2117402;28;953;-85
2021/08/11 05:46:29;;;;;;;;;;;;;;;;;;2124754;27;1981;-84
2021/08/11 05:47:31;;;;;;;;;;;;;;;;;;2125777;27;926;-84
2021/08/11 05:48:32;;;;;;;;;;;;;;;;;;2125701;27;1146;-83
2021/08/11 05:49:36;;;;;;;;;;;;;;;;;;2125933;27;813;-84
2021/08/11 05:50:37;;;;;;;;;;;;;;;;;;2124687;27;1735;-85
2021/08/11 05:51:39;;;;;;;;;;;;;;;;;;2117552;28;1016;-84
2021/08/11 05:52:40;;;;;;;;;;;;;;;;;;2116950;28;781;-84
2021/08/11 05:53:42;;;;;;;;;;;;;;;;;;2117470;28;977;-85
2021/08/11 05:54:42;;;;;;;;;;;;;;;;;;2117278;28;1004;-85
2021/08/11 05:55:46;;;;;;;;;;;;;;;;;;2118619;27;1845;-84
2021/08/11 05:56:49;;;;;;;;;;;;;;;;;;2125604;27;926;-84
2021/08/11 05:57:49;;;;;;;;;;;;;;;;;;2120586;27;1864;-84
2021/08/11 05:58:51;;;;;;;;;;;;;;;;;;2116722;27;1267;-85
2021/08/11 05:59:52;;;;;;;;;;;;;;;;;;2115843;28;1364;-84
2021/08/11 06:00:54;;;;;;;;;;;;;;;;;;2113227;27;1684;-85
2021/08/11 06:01:55;;;;;;;;;;;;;;;;;;2125090;27;1379;-84
2021/08/11 06:02:57;;;;;;;;;;;;;;;;;;2115728;28;2090;-85
2021/08/11 06:04:08;;;;;;;;;;;;;;;;;;2102807;28;1533;-85
2021/08/11 06:05:10;;;;;;;;;;;;;;;;;;2107369;28;1256;-85
2021/08/11 06:06:13;;;;;;;;;;;;;;;;;;2114450;27;1984;-84
2021/08/11 06:07:15;;;;;;;;;;;;;;;;;;2115538;28;1634;-85
2021/08/11 06:08:17;;;;;;;;;;;;;;;;;;2102273;28;1585;-85
2021/08/11 06:09:19;;;;;;;;;;;;;;;;;;2100247;28;1651;-84
2021/08/11 06:10:21;;;;;;;;;;;;;;;;;;2116257;28;1474;-85
2021/08/11 06:11:22;;;;;;;;;;;;;;;;;;2103314;28;1686;-85
2021/08/11 06:12:25;;;;;;;;;;;;;;;;;;2099260;28;1919;-85
2021/08/11 06:13:26;;;;;;;;;;;;;;;;;;2110010;28;819;-85
2021/08/11 06:14:28;;;;;;;;;;;;;;;;;;2110663;28;1426;-85
2021/08/11 06:15:29;;;;;;;;;;;;;;;;;;2108465;28;881;-84
2021/08/11 06:16:31;;;;;;;;;;;;;;;;;;2115733;28;1680;-84
2021/08/11 06:17:31;;;;;;;;;;;;;;;;;;2108072;28;1204;-85
2021/08/11 06:18:33;;;;;;;;;;;;;;;;;;2108331;28;1394;-85
2021/08/11 06:19:34;;;;;;;;;;;;;;;;;;2108036;28;1396;-85
2021/08/11 06:20:36;;;;;;;;;;;;;;;;;;2106968;28;1705;-85
2021/08/11 06:21:36;;;;;;;;;;;;;;;;;;2107789;28;1306;-85
2021/08/11 06:22:38;;;;;;;;;;;;;;;;;;2107496;28;1897;-84
2021/08/11 06:23:40;;;;;;;;;;;;;;;;;;2099900;28;1760;-85
2021/08/11 06:24:42;;;;;;;;;;;;;;;;;;2099252;28;1310;-84
2021/08/11 06:25:44;;;;;;;;;;;;;;;;;;2100778;28;1653;-85
2021/08/11 06:26:46;;;;;;;;;;;;;;;;;;2107485;28;1972;-84
2021/08/11 06:27:49;;;;;;;;;;;;;;;;;;2112675;28;1654;-84
2021/08/11 06:28:51;;;;;;;;;;;;;;;;;;2116381;28;1318;-84
2021/08/11 06:29:52;;;;;;;;;;;;;;;;;;2104687;28;1431;-85
2021/08/11 06:30:54;;;;;;;;;;;;;;;;;;2101687;28;1803;-84
2021/08/11 06:31:55;;;;;;;;;;;;;;;;;;2108211;28;1297;-84
2021/08/11 06:32:57;;;;;;;;;;;;;;;;;;2107225;28;1985;-85
2021/08/11 06:33:59;;;;;;;;;;;;;;;;;;2108435;28;1262;-85
2021/08/11 06:34:59;;;;;;;;;;;;;;;;;;2107264;28;1334;-85
2021/08/11 06:36:01;;;;;;;;;;;;;;;;;;2098878;28;1684;-85
2021/08/11 06:37:02;;;;;;;;;;;;;;;;;;2107393;28;1382;-85
2021/08/11 06:38:04;;;;;;;;;;;;;;;;;;2114413;28;1896;-84
2021/08/11 06:39:07;;;;;;;;;;;;;;;;;;2116485;28;1565;-85
2021/08/11 06:40:09;;;;;;;;;;;;;;;;;;2115965;28;1327;-85
2021/08/11 06:41:15;;;;;;;;;;;;;;;;;;2107381;28;1667;-84
2021/08/11 06:42:19;;;;;;;;;;;;;;;;;;2107992;28;1868;-85
2021/08/11 06:43:32;;;;;;;;;;;;;;;;;;2116221;28;1444;-84
2021/08/11 06:44:33;;;;;;;;;;;;;;;;;;2107503;28;1400;-84
2021/08/11 06:45:35;;;;;;;;;;;;;;;;;;2099678;28;1709;-84
2021/08/11 06:46:37;;;;;;;;;;;;;;;;;;2107451;28;1984;-84
2021/08/11 06:47:37;;;;;;;;;;;;;;;;;;2108101;28;1852;-83
2021/08/11 06:48:40;;;;;;;;;;;;;;;;;;2115797;28;2049;-84
2021/08/11 06:49:41;;;;;;;;;;;;;;;;;;2107688;28;1264;-84
2021/08/11 06:50:42;;;;;;;;;;;;;;;;;;2106544;28;1779;-84
2021/08/11 06:51:43;;;;;;;;;;;;;;;;;;2099719;28;1202;-83
2021/08/11 06:52:45;;;;;;;;;;;;;;;;;;2103516;28;1757;-83
2021/08/11 06:53:46;;;;;;;;;;;;;;;;;;2107481;28;1662;-83
2021/08/11 06:54:47;;;;;;;;;;;;;;;;;;2112968;28;1412;-84
2021/08/11 06:55:48;;;;;;;;;;;;;;;;;;2106534;28;1740;-83
2021/08/11 06:56:50;;;;;;;;;;;;;;;;;;2107624;28;1341;-83
2021/08/11 06:57:51;;;;;;;;;;;;;;;;;;2101725;28;1801;-83
2021/08/11 06:58:54;;;;;;;;;;;;;;;;;;2107323;28;1347;-84
2021/08/11 06:59:55;;;;;;;;;;;;;;;;;;2107344;28;1336;-84
2021/08/11 07:00:59;;;;;;;;;;;;;;;;;;2106136;28;2079;-84
2021/08/11 07:02:01;;;;;;;;;;;;;;;;;;2116507;27;1658;-82
2021/08/11 07:03:03;;;;;;;;;;;;;;;;;;2115016;28;2055;-83
2021/08/11 07:04:04;;;;;;;;;;;;;;;;;;2107922;28;1688;-83
2021/08/11 07:05:06;;;;;;;;;;;;;;;;;;2107720;28;1248;-84
2021/08/11 07:06:09;;;;;;;;;;;;;;;;;;2107013;28;1844;-84
2021/08/11 07:07:10;;;;;;;;;;;;;;;;;;2107958;28;1961;-84
2021/08/11 07:08:12;;;;;;;;;;;;;;;;;;2106196;28;1933;-84
2021/08/11 07:09:12;;;;;;;;;;;;;;;;;;2107778;28;1345;-84
2021/08/11 07:10:15;;;;;;;;;;;;;;;;;;2099285;28;1704;-84
2021/08/11 07:11:16;;;;;;;;;;;;;;;;;;2105045;28;2092;-84
2021/08/11 07:12:18;;;;;;;;;;;;;;;;;;2107327;28;1909;-84
2021/08/11 07:13:20;;;;;;;;;;;;;;;;;;2099395;28;1739;-84
2021/08/11 07:14:24;;;;;;;;;;;;;;;;;;2099573;28;1219;-83
2021/08/11 07:15:26;;;;;;;;;;;;;;;;;;2099318;28;1210;-81